Time;durP1;ratioP1;P1;durP2;ratioP2;P2;SDS_P1;SDS_P2;PMS_P1;PMS_P2;Temp;Humidity;BMP_temperature;BMP_pressure;BME280_temperature;BME280_humidity;BME280_pressure;Samples;Min_cycle;Max_cycle;Signal;HPM_P1;HPM_P2
2024/03/30 00:01:31;;;;;;;13.60;1.73;;;11.30;99.90;;;;;;5015528;28;20672;-79
2024/03/30 00:03:57;;;;;;;12.90;1.77;;;11.30;99.90;;;;;;5015333;28;20679;-79
2024/03/30 00:06:23;;;;;;;13.70;1.50;;;11.40;99.90;;;;;;5015944;28;20181;-79
2024/03/30 00:08:48;;;;;;;13.80;2.10;;;11.40;99.90;;;;;;5015675;28;20174;-79
2024/03/30 00:11:14;;;;;;;13.13;1.67;;;11.40;99.90;;;;;;5015873;28;20186;-80
2024/03/30 00:13:40;;;;;;;13.67;2.23;;;11.40;99.90;;;;;;5015677;28;20228;-79
2024/03/30 00:16:09;;;;;;;13.30;2.03;;;11.40;99.90;;;;;;5015640;28;20220;-79
2024/03/30 00:18:36;;;;;;;18.15;3.17;;;11.40;99.90;;;;;;5016202;28;20221;-79
2024/03/30 00:21:05;;;;;;;13.95;2.05;;;11.40;99.90;;;;;;5015864;28;20209;-79
2024/03/30 00:23:33;;;;;;;15.20;2.40;;;11.40;99.90;;;;;;5015560;28;20222;-79
2024/03/30 00:26:00;;;;;;;12.80;1.50;;;11.50;99.90;;;;;;5015699;28;20166;-79
2024/03/30 00:28:27;;;;;;;14.07;2.35;;;11.50;99.90;;;;;;5015921;28;20253;-80
2024/03/30 00:30:52;;;;;;;13.55;2.10;;;11.40;99.90;;;;;;5015576;28;20528;-79
2024/03/30 00:33:18;;;;;;;14.00;2.40;;;11.40;99.90;;;;;;5015414;28;20213;-79
2024/03/30 00:35:45;;;;;;;14.60;2.00;;;11.40;99.90;;;;;;5015891;28;20248;-79
2024/03/30 00:38:12;;;;;;;13.90;2.30;;;11.40;99.90;;;;;;5015204;28;20170;-79
2024/03/30 00:40:39;;;;;;;12.98;1.52;;;11.30;99.90;;;;;;5015734;28;20186;-79
2024/03/30 00:43:06;;;;;;;15.05;1.90;;;11.30;99.90;;;;;;5015452;28;20290;-79
2024/03/30 00:45:35;;;;;;;14.00;2.63;;;11.20;99.90;;;;;;5015371;28;20162;-79
2024/03/30 00:48:01;;;;;;;13.30;2.40;;;11.20;99.90;;;;;;5015149;28;20170;-79
2024/03/30 00:50:27;;;;;;;14.57;1.60;;;11.10;99.90;;;;;;5014555;28;20534;-79
2024/03/30 00:52:53;;;;;;;13.57;2.43;;;10.90;99.90;;;;;;5014279;28;20183;-79
2024/03/30 00:55:18;;;;;;;14.03;2.10;;;10.90;99.90;;;;;;5014402;28;20229;-79
2024/03/30 00:57:44;;;;;;;13.93;2.30;;;10.70;99.90;;;;;;5014182;28;20539;-79
2024/03/30 01:00:11;;;;;;;14.50;2.67;;;10.70;99.90;;;;;;5014141;28;20531;-79
2024/03/30 01:02:40;;;;;;;15.57;2.83;;;10.60;99.90;;;;;;5014080;28;20201;-79
2024/03/30 01:05:06;;;;;;;13.90;2.90;;;10.70;99.90;;;;;;5014204;28;20631;-79
2024/03/30 01:07:32;;;;;;;14.35;2.90;;;10.60;99.90;;;;;;5014125;28;20640;-79
2024/03/30 01:09:58;;;;;;;15.60;3.00;;;10.60;99.90;;;;;;5013989;28;20170;-79
2024/03/30 01:12:25;;;;;;;14.30;3.00;;;10.60;99.90;;;;;;5013835;28;20436;-79
2024/03/30 01:14:51;;;;;;;14.63;2.88;;;10.60;99.90;;;;;;5013986;28;20193;-79
2024/03/30 01:17:17;;;;;;;16.48;3.50;;;10.60;99.90;;;;;;5013953;28;20167;-79
2024/03/30 01:19:49;;;;;;;15.05;3.60;;;10.60;99.90;;;;;;5014144;28;20166;-79
2024/03/30 01:22:15;;;;;;;16.75;4.03;;;10.60;99.90;;;;;;5014117;28;20205;-79
2024/03/30 01:24:41;;;;;;;15.40;3.67;;;10.60;99.90;;;;;;5013984;28;20166;-79
2024/03/30 01:27:14;;;;;;;15.27;3.17;;;10.60;99.90;;;;;;5014102;28;20229;-79
2024/03/30 01:29:41;;;;;;;16.85;3.10;;;10.60;99.90;;;;;;5014237;28;20800;-79
2024/03/30 01:32:08;;;;;;;16.23;3.72;;;10.50;99.90;;;;;;5013855;28;20179;-79
2024/03/30 01:34:34;;;;;;;17.48;4.50;;;10.50;99.90;;;;;;4996233;28;20173;-79
2024/03/30 01:36:59;;;;;;;18.90;5.80;;;10.50;99.90;;;;;;5014973;28;20532;-80
2024/03/30 01:39:25;;;;;;;20.00;5.83;;;10.60;99.90;;;;;;5104284;22;20494;-81
2024/03/30 01:41:51;;;;;;;17.50;6.57;;;10.60;99.90;;;;;;5034262;28;20593;-81
2024/03/30 01:44:16;;;;;;;17.77;4.90;;;10.60;99.90;;;;;;5016385;28;20202;-80
2024/03/30 01:46:42;;;;;;;19.27;5.90;;;10.60;99.90;;;;;;5034034;28;20162;-81
2024/03/30 01:49:10;;;;;;;18.80;5.57;;;10.60;99.90;;;;;;5036518;28;20598;-81
2024/03/30 01:51:37;;;;;;;19.30;5.25;;;10.60;99.90;;;;;;5037860;28;20185;-80
2024/03/30 01:54:05;;;;;;;19.45;4.88;;;10.60;99.90;;;;;;5019937;28;20174;-81
2024/03/30 01:56:31;;;;;;;19.25;4.22;;;10.60;99.90;;;;;;5019952;28;20181;-80
2024/03/30 01:58:59;;;;;;;17.13;4.05;;;10.60;99.90;;;;;;5037721;28;20192;-80
2024/03/30 02:01:25;;;;;;;15.75;4.07;;;10.60;99.90;;;;;;5037476;28;20186;-81
2024/03/30 02:03:51;;;;;;;17.07;4.40;;;10.60;99.90;;;;;;5019606;28;20259;-81
2024/03/30 02:06:18;;;;;;;19.10;5.15;;;10.60;99.90;;;;;;5019946;28;20426;-81
2024/03/30 02:08:45;;;;;;;17.13;4.45;;;10.50;99.90;;;;;;5037996;28;20188;-81
2024/03/30 02:11:13;;;;;;;15.73;4.40;;;10.50;99.90;;;;;;5037890;28;20198;-81
2024/03/30 02:13:39;;;;;;;16.15;4.32;;;10.60;99.90;;;;;;5037449;28;20165;-81
2024/03/30 02:16:05;;;;;;;17.70;4.78;;;10.50;99.90;;;;;;5037401;28;20178;-80
2024/03/30 02:18:31;;;;;;;16.57;4.40;;;10.50;99.90;;;;;;5037216;28;20173;-80
2024/03/30 02:20:57;;;;;;;16.70;5.30;;;10.50;99.90;;;;;;5019263;28;20432;-80
2024/03/30 02:23:22;;;;;;;16.17;4.50;;;10.50;99.90;;;;;;5037290;28;20190;-81
2024/03/30 02:25:48;;;;;;;18.80;5.70;;;10.50;99.90;;;;;;5019714;28;20169;-80
2024/03/30 02:28:15;;;;;;;17.13;4.60;;;10.50;99.90;;;;;;5019632;28;20200;-80
2024/03/30 02:30:44;;;;;;;23.45;5.95;;;10.50;99.90;;;;;;5037118;28;20162;-81
2024/03/30 02:33:10;;;;;;;17.60;5.20;;;10.40;99.90;;;;;;5037401;28;20205;-81
2024/03/30 02:35:36;;;;;;;19.83;5.10;;;10.30;99.90;;;;;;5037281;28;20174;-81
2024/03/30 02:38:02;;;;;;;16.87;5.53;;;10.30;99.90;;;;;;5036635;28;20536;-80
2024/03/30 02:40:28;;;;;;;16.80;5.13;;;10.40;99.90;;;;;;5019365;28;20448;-80
2024/03/30 02:42:54;;;;;;;18.20;5.47;;;10.50;99.90;;;;;;5036763;28;20190;-81
2024/03/30 02:45:19;;;;;;;17.13;5.03;;;10.50;99.90;;;;;;5036917;28;20169;-81
2024/03/30 02:47:45;;;;;;;16.67;4.60;;;10.50;99.90;;;;;;5036484;28;20166;-81
2024/03/30 02:50:11;;;;;;;18.27;4.80;;;10.40;99.90;;;;;;5037084;28;20458;-81
2024/03/30 02:52:38;;;;;;;16.23;5.07;;;10.40;99.90;;;;;;5018947;28;20280;-81
2024/03/30 02:55:04;;;;;;;18.25;5.55;;;10.40;99.90;;;;;;5036690;28;20162;-80
2024/03/30 02:57:29;;;;;;;17.27;4.93;;;10.50;99.90;;;;;;5036383;28;20650;-81
2024/03/30 02:59:55;;;;;;;18.57;5.30;;;10.50;99.90;;;;;;5035778;28;20400;-81
2024/03/30 03:02:22;;;;;;;19.20;4.40;;;10.40;99.90;;;;;;5036503;28;20248;-81
2024/03/30 03:04:48;;;;;;;16.90;5.43;;;10.40;99.90;;;;;;5036784;28;20189;-81
2024/03/30 03:07:15;;;;;;;18.23;5.65;;;10.40;99.90;;;;;;5036149;28;20165;-81
2024/03/30 03:09:41;;;;;;;18.85;5.07;;;10.30;99.90;;;;;;5036392;28;20158;-81
2024/03/30 03:12:06;;;;;;;18.57;5.20;;;10.20;99.90;;;;;;5036363;28;20231;-81
2024/03/30 03:14:32;;;;;;;16.93;4.80;;;10.30;99.90;;;;;;5035925;28;20174;-81
2024/03/30 03:16:58;;;;;;;16.53;4.70;;;10.30;99.90;;;;;;5018405;28;20239;-81
2024/03/30 03:19:24;;;;;;;17.57;5.17;;;10.30;99.90;;;;;;5036078;28;20170;-81
2024/03/30 03:21:49;;;;;;;23.53;5.30;;;10.30;99.90;;;;;;5018199;28;20186;-81
2024/03/30 03:24:15;;;;;;;17.70;5.20;;;10.30;99.90;;;;;;5035886;28;20197;-81
2024/03/30 03:26:41;;;;;;;15.57;4.37;;;10.30;99.90;;;;;;5018432;28;20170;-81
2024/03/30 03:29:06;;;;;;;17.00;4.70;;;10.30;99.90;;;;;;5018211;28;20833;-81
2024/03/30 03:31:32;;;;;;;17.00;5.60;;;10.30;99.90;;;;;;5018005;28;20208;-81
2024/03/30 03:33:58;;;;;;;17.67;4.90;;;10.30;99.90;;;;;;5035803;28;20170;-80
2024/03/30 03:36:23;;;;;;;19.43;4.63;;;10.20;99.90;;;;;;5036066;28;20169;-81
2024/03/30 03:38:52;;;;;;;16.80;4.50;;;10.20;99.90;;;;;;5018040;28;20563;-81
2024/03/30 03:41:17;;;;;;;16.40;4.40;;;10.20;99.90;;;;;;5035285;28;20194;-81
2024/03/30 03:43:43;;;;;;;17.87;5.37;;;10.20;99.90;;;;;;5035881;28;20247;-81
2024/03/30 03:46:09;;;;;;;16.30;4.60;;;10.20;99.90;;;;;;5035973;28;20162;-81
2024/03/30 03:48:35;;;;;;;16.80;4.97;;;10.20;99.90;;;;;;5035851;28;20166;-81
2024/03/30 03:51:01;;;;;;;17.93;4.93;;;10.20;99.90;;;;;;5035368;28;20492;-81
2024/03/30 03:53:27;;;;;;;15.95;4.40;;;10.20;99.90;;;;;;5017953;28;20200;-81
2024/03/30 03:55:53;;;;;;;18.50;5.53;;;10.20;99.90;;;;;;5017746;28;20596;-81
2024/03/30 03:58:18;;;;;;;18.87;5.87;;;10.10;99.90;;;;;;5035483;28;20188;-81
2024/03/30 04:00:44;;;;;;;18.47;5.80;;;10.10;99.90;;;;;;5017684;28;20166;-81
2024/03/30 04:03:09;;;;;;;18.53;5.77;;;10.10;99.90;;;;;;5035930;28;20209;-81
2024/03/30 04:05:36;;;;;;;19.10;6.30;;;10.10;99.90;;;;;;5035377;28;20240;-81
2024/03/30 04:08:02;;;;;;;18.75;5.43;;;10.10;99.90;;;;;;5035493;28;20170;-81
2024/03/30 04:10:30;;;;;;;19.02;6.00;;;10.10;99.90;;;;;;5035023;28;20177;-81
2024/03/30 04:12:56;;;;;;;20.25;5.50;;;10.10;99.90;;;;;;5034655;28;20196;-81
2024/03/30 04:15:21;;;;;;;26.73;6.37;;;10.00;99.90;;;;;;5035460;28;20166;-81
2024/03/30 04:17:50;;;;;;;18.70;6.43;;;10.10;99.90;;;;;;5017638;28;20177;-81
2024/03/30 04:20:16;;;;;;;19.65;5.32;;;10.10;99.90;;;;;;5035354;28;20235;-81
2024/03/30 04:22:41;;;;;;;18.27;6.10;;;10.10;99.90;;;;;;5034891;28;20190;-81
2024/03/30 04:25:07;;;;;;;16.27;5.17;;;10.10;99.90;;;;;;5035457;28;20162;-81
2024/03/30 04:27:33;;;;;;;19.90;5.40;;;10.10;99.90;;;;;;5035152;28;20188;-81
2024/03/30 04:29:59;;;;;;;19.73;5.90;;;10.10;99.90;;;;;;5034810;28;20458;-81
2024/03/30 04:32:25;;;;;;;18.27;4.20;;;10.10;99.90;;;;;;5017528;28;20195;-81
2024/03/30 04:34:50;;;;;;;19.73;5.53;;;10.10;99.90;;;;;;5035128;28;20404;-81
2024/03/30 04:37:16;;;;;;;16.90;4.90;;;10.10;99.90;;;;;;5017412;28;20627;-81
2024/03/30 04:39:42;;;;;;;17.60;5.10;;;10.00;99.90;;;;;;5034859;28;20192;-81
2024/03/30 04:42:09;;;;;;;18.33;4.97;;;10.00;99.90;;;;;;5034532;28;20199;-81
2024/03/30 04:44:35;;;;;;;20.50;5.38;;;10.00;99.90;;;;;;5016883;28;20455;-81
2024/03/30 04:47:01;;;;;;;15.80;5.07;;;9.90;99.90;;;;;;5034509;28;20543;-81
2024/03/30 04:49:27;;;;;;;18.53;4.70;;;10.00;99.90;;;;;;5034759;28;20405;-81
2024/03/30 04:51:52;;;;;;;18.70;4.70;;;10.00;99.90;;;;;;5034768;28;20421;-81
2024/03/30 04:54:18;;;;;;;17.87;5.20;;;10.00;99.90;;;;;;5017019;28;20256;-81
2024/03/30 04:56:43;;;;;;;16.47;4.67;;;9.90;99.90;;;;;;5034216;28;20170;-81
2024/03/30 04:59:09;;;;;;;19.27;5.70;;;10.00;99.90;;;;;;5016871;28;20197;-81
2024/03/30 05:01:35;;;;;;;19.40;6.17;;;10.00;99.90;;;;;;5034459;28;20182;-81
2024/03/30 05:04:00;;;;;;;17.90;5.90;;;9.90;99.90;;;;;;5034813;28;20243;-81
2024/03/30 05:06:26;;;;;;;20.00;6.03;;;9.90;99.90;;;;;;5034193;28;20177;-81
2024/03/30 05:08:52;;;;;;;19.10;6.00;;;9.90;99.90;;;;;;5034407;28;20166;-81
2024/03/30 05:11:18;;;;;;;20.73;6.40;;;9.90;99.90;;;;;;5034166;28;20249;-81
2024/03/30 05:13:43;;;;;;;20.80;7.00;;;10.00;99.90;;;;;;5034152;28;20407;-81
2024/03/30 05:16:09;;;;;;;19.77;6.50;;;10.00;99.90;;;;;;5034505;28;20220;-80
2024/03/30 05:18:35;;;;;;;18.60;6.17;;;10.00;99.90;;;;;;5016545;28;20658;-80
2024/03/30 05:21:01;;;;;;;19.93;6.83;;;10.00;99.90;;;;;;5034029;28;20181;-80
2024/03/30 05:23:29;;;;;;;23.90;7.47;;;10.00;99.90;;;;;;5017626;28;20689;-79
2024/03/30 05:25:57;;;;;;;20.58;6.35;;;10.00;99.90;;;;;;5020248;28;20220;-81
2024/03/30 05:28:26;;;;;;;20.52;6.15;;;10.10;99.90;;;;;;5038065;28;20162;-81
2024/03/30 05:30:52;;;;;;;22.60;7.18;;;10.10;99.90;;;;;;5037844;28;20223;-81
2024/03/30 05:33:22;;;;;;;21.63;6.40;;;10.00;99.90;;;;;;5038036;28;20170;-81
2024/03/30 05:35:51;;;;;;;21.15;6.65;;;10.10;99.90;;;;;;5019823;28;20212;-80
2024/03/30 05:38:17;;;;;;;20.17;7.50;;;10.20;99.90;;;;;;5019660;28;20189;-80
2024/03/30 05:40:44;;;;;;;27.30;8.20;;;10.20;99.90;;;;;;5019729;28;20174;-80
2024/03/30 05:43:10;;;;;;;20.20;6.68;;;10.10;99.90;;;;;;5020150;28;20192;-81
2024/03/30 05:45:37;;;;;;;20.87;6.20;;;10.20;99.90;;;;;;5038165;28;20236;-81
2024/03/30 05:48:03;;;;;;;22.55;6.97;;;10.20;99.90;;;;;;5037989;28;20392;-81
2024/03/30 05:50:29;;;;;;;19.02;6.47;;;10.30;99.90;;;;;;5038259;28;20166;-81
2024/03/30 05:52:55;;;;;;;22.00;6.45;;;10.30;99.90;;;;;;5020202;28;20699;-81
2024/03/30 05:55:21;;;;;;;19.50;5.85;;;10.30;99.90;;;;;;5037624;28;20170;-80
2024/03/30 05:57:47;;;;;;;18.47;5.30;;;10.40;99.90;;;;;;5037628;28;20200;-80
2024/03/30 06:00:14;;;;;;;16.50;4.38;;;10.40;99.90;;;;;;5019530;28;20412;-80
2024/03/30 06:02:42;;;;;;;18.70;5.60;;;10.40;99.90;;;;;;5037380;28;20190;-81
2024/03/30 06:05:08;;;;;;;19.05;5.15;;;10.40;99.90;;;;;;5037689;28;20169;-81
2024/03/30 06:07:35;;;;;;;18.93;5.20;;;10.50;99.90;;;;;;5037438;28;20505;-80
2024/03/30 06:10:01;;;;;;;18.88;5.05;;;10.50;99.90;;;;;;5019666;28;20814;-80
2024/03/30 06:12:27;;;;;;;18.30;5.10;;;10.60;99.90;;;;;;5019583;28;20201;-82
2024/03/30 06:14:52;;;;;;;17.03;5.00;;;10.60;99.90;;;;;;5037373;28;20277;-81
2024/03/30 06:17:18;;;;;;;21.57;5.33;;;10.70;99.90;;;;;;5037415;28;20644;-81
2024/03/30 06:19:44;;;;;;;19.90;4.70;;;10.70;99.90;;;;;;5037273;28;20206;-81
2024/03/30 06:22:10;;;;;;;17.00;4.77;;;10.70;99.90;;;;;;5019456;28;20698;-81
2024/03/30 06:24:38;;;;;;;16.35;4.78;;;10.70;99.90;;;;;;5037409;28;20412;-82
2024/03/30 06:27:08;;;;;;;16.20;4.70;;;10.70;99.90;;;;;;5037208;28;20183;-81
2024/03/30 06:29:38;;;;;;;19.88;4.75;;;10.70;99.90;;;;;;5036791;28;20162;-81
2024/03/30 06:32:04;;;;;;;16.63;4.53;;;10.70;99.90;;;;;;5019323;28;20181;-81
2024/03/30 06:34:33;;;;;;;17.55;3.85;;;10.80;99.90;;;;;;5035928;28;20192;-81
2024/03/30 06:36:59;;;;;;;17.42;3.92;;;10.80;99.90;;;;;;5019383;28;20542;-81
2024/03/30 06:39:27;;;;;;;18.85;3.58;;;10.90;99.90;;;;;;5037060;28;20200;-81
2024/03/30 06:44:37;;;;;;;14.35;3.00;;;11.00;99.90;;;;;;5037226;28;20203;-81
2024/03/30 06:47:03;;;;;;;15.07;3.17;;;11.00;99.90;;;;;;5019039;28;20166;-81
2024/03/30 06:49:28;;;;;;;15.93;2.90;;;11.10;99.90;;;;;;5018952;28;20224;-81
2024/03/30 06:51:54;;;;;;;15.50;3.10;;;11.10;99.90;;;;;;5036917;28;20228;-81
2024/03/30 06:54:23;;;;;;;15.57;3.57;;;11.20;99.90;;;;;;5036903;28;20185;-81
2024/03/30 06:56:49;;;;;;;15.65;2.75;;;11.20;99.90;;;;;;5036997;28;20162;-81
2024/03/30 06:59:14;;;;;;;15.10;2.57;;;11.20;99.90;;;;;;5037217;28;20188;-81
2024/03/30 07:01:40;;;;;;;16.80;2.73;;;11.20;99.90;;;;;;5037446;28;20232;-81
2024/03/30 07:04:06;;;;;;;13.43;2.20;;;11.30;99.90;;;;;;5037067;28;20193;-81
2024/03/30 07:06:31;;;;;;;19.37;2.77;;;11.30;99.90;;;;;;5019042;28;20181;-82
2024/03/30 07:08:58;;;;;;;13.27;2.10;;;11.30;99.90;;;;;;5018817;28;20172;-81
2024/03/30 07:11:26;;;;;;;14.20;2.05;;;11.40;99.90;;;;;;5018827;28;20186;-81
2024/03/30 07:13:52;;;;;;;18.15;2.90;;;11.40;99.90;;;;;;5036712;28;20166;-80
2024/03/30 07:16:18;;;;;;;15.30;2.17;;;11.40;99.90;;;;;;5036518;28;20170;-81
2024/03/30 07:18:46;;;;;;;15.43;2.63;;;11.50;99.90;;;;;;5018553;28;20249;-81
2024/03/30 07:21:12;;;;;;;13.63;2.65;;;11.50;99.90;;;;;;5035573;28;20277;-81
2024/03/30 07:23:38;;;;;;;17.03;2.43;;;11.60;99.90;;;;;;5018870;28;20277;-81
2024/03/30 07:26:05;;;;;;;24.90;3.03;;;11.60;99.90;;;;;;5036528;28;20217;-82
2024/03/30 07:28:31;;;;;;;14.48;2.60;;;11.70;99.90;;;;;;5018695;28;20235;-82
2024/03/30 07:31:04;;;;;;;14.55;1.92;;;11.70;99.90;;;;;;5018351;28;20600;-82
2024/03/30 07:33:30;;;;;;;14.52;2.55;;;11.70;99.90;;;;;;5018366;28;20188;-82
2024/03/30 07:35:56;;;;;;;15.00;2.90;;;11.70;99.90;;;;;;5018003;28;20548;-81
2024/03/30 07:38:26;;;;;;;15.15;2.85;;;11.80;99.90;;;;;;5017745;28;20197;-81
2024/03/30 07:40:51;;;;;;;16.27;2.35;;;11.90;99.90;;;;;;5018317;28;20188;-81
2024/03/30 07:43:17;;;;;;;17.23;2.17;;;11.90;99.90;;;;;;5035754;28;20182;-82
2024/03/30 07:45:43;;;;;;;14.23;2.40;;;11.90;99.90;;;;;;5035881;28;20151;-82
2024/03/30 07:48:08;;;;;;;14.70;2.50;;;12.00;99.90;;;;;;5035665;28;20162;-83
2024/03/30 07:50:37;;;;;;;16.40;2.53;;;12.00;99.90;;;;;;5018034;28;20170;-81
2024/03/30 07:53:03;;;;;;;13.98;2.53;;;12.20;99.90;;;;;;5035780;28;20166;-82
2024/03/30 07:55:29;;;;;;;15.30;2.40;;;12.20;99.90;;;;;;5017801;28;20602;-82
2024/03/30 07:57:55;;;;;;;14.10;2.67;;;12.30;99.90;;;;;;5017841;28;20459;-82
2024/03/30 08:00:22;;;;;;;22.70;3.13;;;12.50;99.90;;;;;;5018193;28;20208;-82
2024/03/30 08:02:48;;;;;;;14.00;2.30;;;12.50;99.90;;;;;;5035509;28;20212;-82
2024/03/30 08:05:13;;;;;;;16.40;2.90;;;12.60;99.90;;;;;;5035578;28;20248;-82
2024/03/30 08:07:39;;;;;;;17.47;2.87;;;12.60;99.90;;;;;;5035244;28;20169;-82
2024/03/30 08:10:06;;;;;;;18.65;2.50;;;12.60;99.90;;;;;;5018426;28;20623;-82
2024/03/30 08:12:32;;;;;;;14.23;2.70;;;12.70;99.90;;;;;;5017803;28;20205;-82
2024/03/30 08:14:57;;;;;;;14.93;2.90;;;12.70;99.90;;;;;;5035876;28;20658;-82
2024/03/30 08:17:24;;;;;;;16.77;3.03;;;12.80;99.90;;;;;;5035757;28;20210;-82
2024/03/30 08:19:50;;;;;;;15.00;2.30;;;12.90;99.90;;;;;;5035803;28;20823;-82
2024/03/30 08:22:16;;;;;;;15.60;2.03;;;13.00;99.90;;;;;;5035018;28;20244;-82
2024/03/30 08:24:42;;;;;;;14.63;2.00;;;13.10;99.90;;;;;;5035987;28;20515;-82
2024/03/30 08:27:07;;;;;;;15.07;2.30;;;13.20;99.90;;;;;;5035483;28;20169;-82
2024/03/30 08:29:33;;;;;;;18.17;2.80;;;13.20;99.90;;;;;;5035156;28;20166;-82
2024/03/30 08:31:59;;;;;;;14.63;2.10;;;13.30;99.90;;;;;;5017817;28;20205;-82
2024/03/30 08:34:24;;;;;;;13.50;2.23;;;13.40;99.90;;;;;;5035231;28;20166;-82
2024/03/30 08:36:53;;;;;;;14.10;2.07;;;13.40;99.90;;;;;;5035389;28;20169;-82
2024/03/30 08:39:19;;;;;;;17.40;2.47;;;13.40;99.90;;;;;;5034660;28;20316;-82
2024/03/30 08:41:44;;;;;;;17.67;2.43;;;13.50;99.90;;;;;;5034890;28;20854;-83
2024/03/30 08:44:16;;;;;;;19.10;2.00;;;13.60;99.90;;;;;;5016964;28;20239;-82
2024/03/30 08:46:41;;;;;;;14.90;2.10;;;13.70;99.90;;;;;;5034643;28;20534;-82
2024/03/30 08:49:13;;;;;;;14.60;2.30;;;13.90;99.90;;;;;;5016919;28;20499;-81
2024/03/30 08:51:39;;;;;;;14.30;2.10;;;14.10;99.90;;;;;;5034211;28;20182;-81
2024/03/30 08:54:05;;;;;;;17.43;2.80;;;14.20;99.90;;;;;;5016544;28;20412;-82
2024/03/30 08:56:35;;;;;;;22.80;3.80;;;14.20;99.90;;;;;;5016006;28;20173;-82
2024/03/30 08:59:01;;;;;;;17.83;2.20;;;14.20;99.90;;;;;;5033834;28;20444;-80
2024/03/30 09:01:30;;;;;;;15.43;2.10;;;14.20;99.90;;;;;;5017006;28;20954;-82
2024/03/30 09:03:56;;;;;;;17.63;2.77;;;14.30;99.90;;;;;;5016914;28;20458;-82
2024/03/30 09:06:22;;;;;;;18.00;2.40;;;14.30;99.90;;;;;;5034318;28;20499;-82
2024/03/30 09:08:47;;;;;;;16.77;2.30;;;14.40;99.90;;;;;;5097405;22;20271;-80
2024/03/30 09:11:13;;;;;;;18.13;3.60;;;14.40;99.90;;;;;;5031859;28;20264;-81
2024/03/30 09:13:39;;;;;;;14.70;2.53;;;14.50;99.90;;;;;;5015774;28;20174;-81
2024/03/30 09:16:05;;;;;;;19.37;2.20;;;14.60;99.90;;;;;;5033426;28;20173;-81
2024/03/30 09:18:31;;;;;;;18.33;2.13;;;14.70;99.90;;;;;;5015337;28;20176;-81
2024/03/30 09:21:02;;;;;;;15.53;2.10;;;14.60;99.90;;;;;;5034620;28;20400;-81
2024/03/30 09:23:28;;;;;;;21.20;2.30;;;14.70;99.90;;;;;;5033284;28;20714;-81
2024/03/30 09:25:56;;;;;;;16.83;2.40;;;14.70;99.90;;;;;;5016013;28;20416;-82
2024/03/30 09:28:22;;;;;;;15.90;2.30;;;14.70;99.90;;;;;;5016545;28;20415;-81
2024/03/30 09:30:48;;;;;;;13.67;1.70;;;14.70;99.90;;;;;;5034501;28;20396;-81
2024/03/30 09:33:14;;;;;;;17.60;1.90;;;14.80;99.90;;;;;;5034029;28;20205;-82
2024/03/30 09:35:40;;;;;;;15.80;2.10;;;14.90;99.90;;;;;;5033971;28;20802;-82
2024/03/30 09:38:06;;;;;;;14.63;1.80;;;15.00;99.90;;;;;;5034361;28;20656;-82
2024/03/30 09:40:35;;;;;;;17.87;1.97;;;15.10;99.90;;;;;;5034203;28;20415;-81
2024/03/30 09:43:01;;;;;;;17.03;1.87;;;15.20;99.90;;;;;;5016529;28;20201;-82
2024/03/30 09:45:28;;;;;;;15.00;1.47;;;15.30;99.90;;;;;;5034487;28;20771;-82
2024/03/30 09:48:00;;;;;;;20.87;2.20;;;15.50;99.90;;;;;;5034495;28;21020;-82
2024/03/30 09:50:26;;;;;;;19.00;2.37;;;15.60;99.90;;;;;;5034673;28;20373;-82
2024/03/30 09:52:53;;;;;;;20.63;2.13;;;15.70;99.90;;;;;;5034446;28;20425;-82
2024/03/30 09:55:19;;;;;;;22.23;2.60;;;15.80;99.90;;;;;;5033934;28;20496;-82
2024/03/30 09:57:52;;;;;;;16.17;2.10;;;15.90;99.90;;;;;;5016757;28;20790;-82
2024/03/30 10:00:19;;;;;;;18.60;2.67;;;16.00;99.90;;;;;;5034115;28;20751;-82
2024/03/30 10:02:46;;;;;;;17.73;2.37;;;16.20;99.90;;;;;;5035013;28;20467;-82
2024/03/30 10:05:13;;;;;;;22.10;2.03;;;16.30;99.90;;;;;;5017336;28;20436;-82
2024/03/30 10:07:49;;;;;;;20.67;2.20;;;16.40;99.90;;;;;;5033991;28;20405;-82
2024/03/30 10:10:19;;;;;;;29.30;2.60;;;16.50;92.00;;;;;;5017456;28;20416;-82
2024/03/30 10:13:19;;;;;;;26.27;2.63;;;16.60;9.50;;;;;;5038098;28;20431;-82
2024/03/30 10:15:51;;;;;;;17.90;2.10;;;16.70;1.00;;;;;;5020457;28;20454;-82
2024/03/30 10:18:17;;;;;;;20.23;2.97;;;16.90;1.00;;;;;;5037976;28;20424;-82
2024/03/30 10:20:43;;;;;;;20.93;2.53;;;16.80;1.00;;;;;;5037955;28;20770;-82
2024/03/30 10:23:10;;;;;;;23.60;2.30;;;16.70;1.00;;;;;;5019884;28;20440;-82
2024/03/30 10:25:39;;;;;;;21.50;2.17;;;16.80;1.00;;;;;;5037787;28;20400;-82
2024/03/30 10:28:13;;;;;;;23.77;2.73;;;16.90;1.00;;;;;;5037732;28;20761;-82
2024/03/30 10:30:39;;;;;;;25.00;3.27;;;16.90;1.00;;;;;;5038118;28;20403;-82
2024/03/30 10:33:10;;;;;;;23.97;2.03;;;16.90;1.00;;;;;;5038256;28;20401;-82
2024/03/30 10:35:36;;;;;;;21.57;2.30;;;16.80;1.00;;;;;;5038178;28;20147;-82
2024/03/30 10:38:02;;;;;;;16.50;3.23;;;16.90;1.00;;;;;;5037682;28;20739;-82
2024/03/30 10:40:27;;;;;;;17.83;2.70;;;16.80;1.00;;;;;;5038016;28;20167;-82
2024/03/30 10:42:55;;;;;;;20.67;3.47;;;16.70;1.00;;;;;;5038516;28;20280;-82
2024/03/30 10:45:23;;;;;;;24.00;3.23;;;16.70;1.00;;;;;;5038180;28;20158;-82
2024/03/30 10:47:54;;;;;;;24.73;3.10;;;16.80;1.00;;;;;;5037634;28;20463;-82
2024/03/30 10:50:19;;;;;;;23.20;2.40;;;16.60;1.00;;;;;;5020267;28;20480;-82
2024/03/30 10:52:45;;;;;;;18.60;2.87;;;16.70;1.00;;;;;;5037716;28;20483;-83
2024/03/30 10:55:11;;;;;;;18.90;2.67;;;16.60;1.00;;;;;;5038369;28;20405;-82
2024/03/30 10:57:38;;;;;;;19.93;2.27;;;16.60;1.00;;;;;;5038616;28;20429;-82
2024/03/30 11:00:07;;;;;;;26.90;2.53;;;16.60;1.00;;;;;;5037899;28;20181;-83
2024/03/30 11:02:34;;;;;;;27.60;4.80;;;16.60;1.00;;;;;;5036958;28;20523;-82
2024/03/30 11:05:02;;;;;;;25.13;2.97;;;16.50;1.00;;;;;;5037222;28;20487;-82
2024/03/30 11:07:28;;;;;;;24.03;2.20;;;16.60;1.00;;;;;;5020748;28;20421;-82
2024/03/30 11:09:57;;;;;;;25.33;3.50;;;16.60;1.00;;;;;;5020339;28;20431;-82
2024/03/30 11:12:23;;;;;;;23.77;2.80;;;16.60;1.00;;;;;;5037255;28;20269;-82
2024/03/30 11:14:50;;;;;;;29.67;4.07;;;16.60;1.00;;;;;;5036996;28;20448;-82
2024/03/30 11:17:25;;;;;;;25.53;3.13;;;16.60;1.00;;;;;;5037267;28;20157;-82
2024/03/30 11:20:04;;;;;;;33.83;4.10;;;16.60;1.00;;;;;;5037947;28;20458;-82
2024/03/30 11:22:52;;;;;;;39.37;5.10;;;16.60;1.00;;;;;;5036926;28;20425;-82
2024/03/30 11:25:22;;;;;;;28.40;3.83;;;16.60;1.00;;;;;;5037679;28;20399;-82
2024/03/30 11:27:50;;;;;;;39.27;5.30;;;16.50;1.00;;;;;;5036850;28;20913;-82
2024/03/30 11:30:36;;;;;;;28.33;3.60;;;16.50;1.00;;;;;;5037041;28;20405;-83
2024/03/30 11:33:10;;;;;;;28.80;3.10;;;16.60;1.00;;;;;;5037726;28;20429;-82
2024/03/30 11:35:44;;;;;;;31.60;4.73;;;16.60;1.00;;;;;;5036553;28;20408;-82
2024/03/30 11:38:11;;;;;;;43.17;7.17;;;16.50;1.00;;;;;;5036694;28;20393;-82
2024/03/30 11:40:41;;;;;;;32.20;3.93;;;16.50;1.00;;;;;;5036877;28;20501;-82
2024/03/30 11:43:24;;;;;;;34.47;4.97;;;16.40;1.00;;;;;;5036645;28;20837;-82
2024/03/30 11:45:50;;;;;;;29.03;7.17;;;16.50;1.00;;;;;;5036517;28;20392;-82
2024/03/30 11:48:17;;;;;;;29.83;4.20;;;16.50;1.00;;;;;;5019119;28;20409;-82
2024/03/30 11:50:44;;;;;;;33.60;4.20;;;16.50;1.00;;;;;;5035867;28;20400;-82
2024/03/30 11:53:18;;;;;;;46.57;5.10;;;16.50;1.00;;;;;;5019018;28;20424;-83
2024/03/30 11:55:48;;;;;;;27.70;4.00;;;16.50;1.00;;;;;;5036516;28;20458;-82
2024/03/30 11:58:19;;;;;;;35.13;4.80;;;16.40;1.00;;;;;;5036521;28;20416;-82
2024/03/30 12:01:00;;;;;;;30.50;4.70;;;16.40;1.00;;;;;;5036504;28;20401;-82
2024/03/30 12:03:28;;;;;;;34.03;6.07;;;16.40;1.00;;;;;;5036123;28;20527;-82
2024/03/30 12:05:55;;;;;;;31.20;4.50;;;16.40;1.00;;;;;;5035594;28;20435;-82
2024/03/30 12:08:22;;;;;;;35.83;4.17;;;16.40;1.00;;;;;;5036696;28;20440;-82
2024/03/30 12:10:55;;;;;;;40.40;5.00;;;16.40;1.00;;;;;;5038565;28;20439;-83
2024/03/30 12:13:22;;;;;;;31.67;4.40;;;16.40;1.00;;;;;;5039218;28;20897;-83
2024/03/30 12:15:48;;;;;;;31.70;5.23;;;16.40;1.00;;;;;;5038486;28;20413;-82
2024/03/30 12:18:15;;;;;;;41.23;3.80;;;16.40;1.00;;;;;;5036594;28;20481;-82
2024/03/30 12:20:42;;;;;;;30.00;3.60;;;16.40;1.00;;;;;;5035883;28;20461;-82
2024/03/30 12:23:12;;;;;;;32.90;4.27;;;16.50;1.00;;;;;;5035959;28;20444;-82
2024/03/30 12:25:39;;;;;;;32.70;3.60;;;16.50;1.00;;;;;;5019223;28;20409;-82
2024/03/30 12:28:06;;;;;;;25.17;4.07;;;16.50;1.00;;;;;;5018422;28;20428;-82
2024/03/30 12:30:48;;;;;;;26.30;4.10;;;16.50;1.00;;;;;;5036070;28;20409;-82
2024/03/30 12:33:15;;;;;;;25.53;2.50;;;16.60;1.00;;;;;;5035183;28;20495;-82
2024/03/30 12:35:42;;;;;;;26.63;4.90;;;16.50;1.00;;;;;;5035845;28;20408;-83
2024/03/30 12:38:22;;;;;;;34.97;4.33;;;16.50;1.00;;;;;;5036453;28;20401;-82
2024/03/30 12:41:00;;;;;;;30.60;4.50;;;16.60;1.00;;;;;;5036958;28;20385;-82